createdAt,value
2019-01-26T00:00:00.377Z,14.00
2019-01-26T00:02:30.653Z,21.33
2019-01-26T00:10:58.316Z,15.33
2019-01-26T00:13:28.600Z,20.00
2019-01-26T00:16:01.419Z,10.67
2019-01-26T00:19:04.085Z,14.67
2019-01-26T00:21:43.697Z,12.00
2019-01-26T00:24:13.990Z,10.00
2019-01-26T00:26:51.381Z,18.00
2019-01-26T00:29:24.104Z,12.67
2019-01-26T00:35:01.969Z,15.33
2019-01-26T00:37:32.241Z,12.67
2019-01-26T00:43:06.512Z,12.00
2019-01-26T00:45:36.893Z,12.67
2019-01-26T00:48:16.523Z,10.00
2019-01-26T00:51:05.841Z,13.33
2019-01-26T00:53:57.773Z,10.00
2019-01-26T00:56:30.617Z,14.67
2019-01-26T00:59:00.984Z,10.00
2019-01-26T01:01:31.232Z,8.00
2019-01-26T01:04:22.765Z,14.67
2019-01-26T01:06:53.055Z,10.00
2019-01-26T01:09:42.298Z,10.00
2019-01-26T01:12:12.570Z,11.33
2019-01-26T01:14:42.797Z,10.67
2019-01-26T01:17:13.045Z,13.33
2019-01-26T01:22:26.956Z,13.33
2019-01-26T01:24:57.314Z,12.67
2019-01-26T01:30:18.745Z,16.00
2019-01-26T01:32:49.018Z,12.67
2019-01-26T01:41:03.094Z,10.00
2019-01-26T01:43:36.071Z,14.67
2019-01-26T01:46:25.351Z,12.00
2019-01-26T01:49:10.068Z,12.00
2019-01-26T01:51:27.814Z,8.00
2019-01-26T01:53:58.057Z,10.00
2019-01-26T01:56:28.279Z,10.00
2019-01-26T01:58:58.489Z,9.33
2019-01-26T02:01:50.526Z,10.67
2019-01-26T02:07:11.296Z,10.67
2019-01-26T02:09:41.599Z,21.33
2019-01-26T02:15:40.263Z,12.67
2019-01-26T02:18:29.152Z,10.00
2019-01-26T02:23:50.036Z,8.67
2019-01-26T02:26:39.649Z,9.33
2019-01-26T02:29:09.843Z,11.33
2019-01-26T02:31:40.074Z,10.00
2019-01-26T02:34:29.329Z,10.00
2019-01-26T02:36:59.569Z,10.67
2019-01-26T02:39:29.944Z,12.00
2019-01-26T02:42:19.299Z,12.67
2019-01-26T02:44:51.394Z,10.00
2019-01-26T02:47:21.990Z,6.67
2019-01-26T02:50:12.258Z,10.67
2019-01-26T02:52:44.669Z,8.67
2019-01-26T02:55:15.173Z,14.00
2019-01-26T02:58:24.640Z,14.00
2019-01-26T03:01:13.594Z,10.00
2019-01-26T03:04:02.827Z,10.00
2019-01-26T03:06:33.247Z,10.67
2019-01-26T03:12:13.081Z,8.00
2019-01-26T03:15:01.968Z,12.67
2019-01-26T03:18:03.228Z,12.00
2019-01-26T03:23:11.958Z,10.67
2019-01-26T03:25:42.192Z,8.00
2019-01-26T03:28:12.405Z,6.00
2019-01-26T03:31:08.847Z,8.00
2019-01-26T03:45:15.386Z,8.67
2019-01-26T03:47:46.547Z,8.50
2019-01-26T03:50:17.685Z,6.00
2019-01-26T03:52:47.955Z,7.33
2019-01-26T03:55:57.990Z,6.67
2019-01-26T03:58:28.280Z,11.33
2019-01-26T04:00:58.546Z,7.33
2019-01-26T04:03:47.689Z,8.00
2019-01-26T04:06:18.818Z,6.00
2019-01-26T04:08:49.928Z,8.00
2019-01-26T04:11:20.142Z,6.67
2019-01-26T04:14:12.137Z,9.33
2019-01-26T04:16:42.390Z,8.00
2019-01-26T04:19:15.119Z,8.67
2019-01-26T04:22:04.459Z,10.00
2019-01-26T04:24:34.634Z,8.00
2019-01-26T04:27:23.522Z,10.00
2019-01-26T04:29:55.656Z,10.00
2019-01-26T04:32:26.171Z,8.00
2019-01-26T04:34:58.239Z,10.00
2019-01-26T04:43:34.409Z,8.00
2019-01-26T04:48:47.233Z,8.00
2019-01-26T04:51:56.864Z,6.67
2019-01-26T04:57:27.980Z,8.67
2019-01-26T04:59:59.520Z,6.00
2019-01-26T05:05:53.441Z,6.00
2019-01-26T05:08:43.537Z,5.33
2019-01-26T05:11:14.759Z,7.33
2019-01-26T05:16:47.648Z,6.00
2019-01-26T05:19:17.895Z,6.00
2019-01-26T05:22:07.170Z,8.00
2019-01-26T05:24:38.251Z,6.00
2019-01-26T05:27:09.414Z,4.00
2019-01-26T05:29:40.500Z,6.67
2019-01-26T05:35:12.909Z,7.33
2019-01-26T05:38:02.157Z,7.67
2019-01-26T05:40:32.487Z,5.67
2019-01-26T05:43:03.671Z,8.00
2019-01-26T05:45:53.716Z,6.67
2019-01-26T05:48:25.649Z,5.50
2019-01-26T05:51:35.957Z,7.33
2019-01-26T05:54:07.106Z,6.00
2019-01-26T05:56:56.303Z,4.00
2019-01-26T05:59:46.374Z,5.00
2019-01-26T06:05:06.322Z,5.33
2019-01-26T06:07:57.319Z,6.00
2019-01-26T06:10:47.447Z,6.00
2019-01-26T06:13:37.560Z,4.00
2019-01-26T06:16:08.672Z,7.33
2019-01-26T06:18:39.742Z,6.67
2019-01-26T06:21:28.974Z,6.00
2019-01-26T06:23:59.169Z,4.00
2019-01-26T06:26:29.390Z,4.00
2019-01-26T06:31:43.276Z,4.00
2019-01-26T06:34:14.438Z,4.00
2019-01-26T06:36:46.443Z,6.00
2019-01-26T06:39:29.945Z,4.00
2019-01-26T06:41:49.432Z,5.33
2019-01-26T06:44:19.788Z,6.00
2019-01-26T06:47:01.754Z,6.67
2019-01-26T06:49:21.890Z,6.67
2019-01-26T06:52:11.103Z,6.00
2019-01-26T06:58:10.618Z,6.00
2019-01-26T07:01:07.249Z,6.00
2019-01-26T07:03:56.888Z,6.00
2019-01-26T07:06:45.819Z,10.33
2019-01-26T07:09:35.040Z,7.00
2019-01-26T07:14:55.750Z,8.00
2019-01-26T07:17:42.280Z,8.00
2019-01-26T07:20:01.990Z,8.67
2019-01-26T07:22:34.079Z,6.67
2019-01-26T07:25:06.427Z,9.00
2019-01-26T07:27:36.630Z,8.67
2019-01-26T07:30:47.635Z,8.00
2019-01-26T07:33:19.720Z,12.00
2019-01-26T07:39:11.952Z,9.33
2019-01-26T07:41:42.139Z,11.33
2019-01-26T07:44:12.415Z,18.00
2019-01-26T07:46:58.524Z,16.67
2019-01-26T07:49:29.845Z,14.67
2019-01-26T07:51:50.942Z,10.00
2019-01-26T07:54:21.198Z,10.67
2019-01-26T08:00:18.965Z,10.00
2019-01-26T08:02:49.676Z,8.00
2019-01-26T08:06:00.995Z,10.00
2019-01-26T08:08:34.219Z,8.00
2019-01-26T08:11:04.950Z,11.33
2019-01-26T08:13:35.267Z,7.33
2019-01-26T08:16:05.513Z,8.00
2019-01-26T08:18:55.078Z,9.67
2019-01-26T08:21:57.368Z,9.33
2019-01-26T08:24:28.680Z,6.67
2019-01-26T08:26:58.970Z,4.67
2019-01-26T08:29:29.197Z,10.00
2019-01-26T08:32:18.442Z,6.00
2019-01-26T08:35:04.259Z,4.00
2019-01-26T08:37:42.801Z,6.00
2019-01-26T08:40:14.946Z,6.67
2019-01-26T08:42:48.570Z,4.00
2019-01-26T08:48:31.157Z,5.33
2019-01-26T08:50:58.950Z,4.67
2019-01-26T08:53:49.590Z,5.00
2019-01-26T08:56:20.718Z,4.67
2019-01-26T08:59:26.491Z,4.00
2019-01-26T09:05:09.889Z,6.00
2019-01-26T09:07:40.989Z,5.33
2019-01-26T09:10:14.457Z,4.67
2019-01-26T09:15:47.475Z,6.67
2019-01-26T09:18:42.281Z,6.00
2019-01-26T09:21:13.453Z,8.00
2019-01-26T09:23:44.522Z,4.67
2019-01-26T09:26:53.963Z,6.00
2019-01-26T09:29:25.045Z,6.00
2019-01-26T09:37:50.762Z,9.00
2019-01-26T09:40:21.895Z,4.67
2019-01-26T09:42:55.007Z,8.00
2019-01-26T09:45:45.139Z,5.33
2019-01-26T09:48:35.932Z,6.33
2019-01-26T09:51:17.224Z,5.33
2019-01-26T09:54:21.242Z,6.00
2019-01-26T10:02:22.639Z,4.67
2019-01-26T10:05:13.906Z,5.00
2019-01-26T10:08:24.972Z,5.33
2019-01-26T10:10:58.506Z,4.00
2019-01-26T10:13:48.283Z,4.00
2019-01-26T10:16:38.955Z,4.67
2019-01-26T10:22:52.776Z,5.00
2019-01-26T10:25:48.402Z,5.33
2019-01-26T10:31:27.669Z,6.00
2019-01-26T10:34:21.571Z,4.00
2019-01-26T10:37:43.004Z,4.00
2019-01-26T10:40:56.281Z,5.00
2019-01-26T10:43:48.046Z,5.67
2019-01-26T10:53:40.090Z,3.33
2019-01-26T10:56:17.942Z,3.33
2019-01-26T11:05:27.296Z,2.00
2019-01-26T11:10:53.541Z,9.86
2019-01-26T11:13:44.889Z,7.00
2019-01-26T11:16:19.319Z,5.33
2019-01-26T11:18:52.041Z,4.00
2019-01-26T11:22:06.321Z,4.00
2019-01-26T11:24:57.289Z,6.67
2019-01-26T11:28:06.375Z,5.33
2019-01-26T11:31:19.158Z,6.50
2019-01-26T11:33:54.526Z,6.33
2019-01-26T11:36:28.161Z,6.00
2019-01-26T11:39:17.115Z,9.33
2019-01-26T11:42:07.198Z,6.00
2019-01-26T11:45:16.872Z,6.40
2019-01-26T11:54:40.611Z,7.00
2019-01-26T11:57:29.507Z,6.00
2019-01-26T12:00:24.970Z,4.00
2019-01-26T12:03:15.658Z,8.00
2019-01-26T12:06:18.523Z,6.67
2019-01-26T12:08:48.891Z,7.33
2019-01-26T12:11:40.641Z,11.33
2019-01-26T12:14:17.111Z,8.00
2019-01-26T12:17:09.273Z,6.00
2019-01-26T12:19:39.458Z,7.00
2019-01-26T12:22:12.183Z,7.33
2019-01-26T12:28:26.958Z,10.00
2019-01-26T12:31:07.323Z,6.00
2019-01-26T12:36:55.722Z,5.33
2019-01-26T12:39:15.024Z,6.00
2019-01-26T12:42:00.332Z,7.33
2019-01-26T12:47:26.769Z,6.00
2019-01-26T12:50:16.904Z,6.67
2019-01-26T12:52:47.384Z,7.33
2019-01-26T12:55:17.725Z,8.00
2019-01-26T13:01:06.958Z,8.00
2019-01-26T13:03:37.160Z,8.00
2019-01-26T13:06:27.240Z,10.00
2019-01-26T13:12:05.391Z,10.00
2019-01-26T13:14:54.538Z,10.00
2019-01-26T13:17:41.837Z,6.33
2019-01-26T13:20:13.667Z,9.00
2019-01-26T13:23:05.320Z,8.50
2019-01-26T13:28:39.329Z,5.00
2019-01-26T13:37:43.749Z,7.67
2019-01-26T13:40:49.884Z,7.33
2019-01-26T13:43:39.083Z,7.67
2019-01-26T13:46:11.134Z,9.00
2019-01-26T13:48:43.647Z,7.67
2019-01-26T13:51:34.062Z,7.00
2019-01-26T13:54:05.688Z,6.00
2019-01-26T13:56:56.048Z,6.00
2019-01-26T13:59:29.263Z,5.67
2019-01-26T14:01:59.486Z,5.00
2019-01-26T14:04:49.618Z,3.33
2019-01-26T14:07:35.734Z,5.00
2019-01-26T14:10:46.094Z,5.33
2019-01-26T14:13:16.277Z,5.67
2019-01-26T14:16:06.480Z,3.33
2019-01-26T14:21:47.084Z,5.00
2019-01-26T14:24:54.995Z,8.00
2019-01-26T14:27:43.856Z,4.67
2019-01-26T14:30:37.839Z,4.67
2019-01-26T14:36:00.977Z,8.00
2019-01-26T14:38:31.463Z,6.00
2019-01-26T14:41:04.389Z,5.67
2019-01-26T14:43:34.602Z,6.33
2019-01-26T14:49:19.610Z,6.00
2019-01-26T14:51:50.100Z,6.00
2019-01-26T14:54:21.298Z,5.33
2019-01-26T14:57:12.208Z,8.00
2019-01-26T15:02:24.919Z,6.00
2019-01-26T15:05:14.697Z,6.00
2019-01-26T15:07:45.215Z,6.00
2019-01-26T15:10:15.456Z,8.00
2019-01-26T15:16:06.819Z,6.67
2019-01-26T15:19:10.007Z,8.00
2019-01-26T15:21:49.327Z,6.00
2019-01-26T15:24:20.430Z,7.33
2019-01-26T15:26:54.117Z,5.33
2019-01-26T15:29:44.417Z,5.33
2019-01-26T15:33:06.272Z,6.00
2019-01-26T15:38:17.383Z,7.33
2019-01-26T15:40:47.594Z,6.67
2019-01-26T15:46:57.038Z,6.00
2019-01-26T15:49:49.190Z,6.00
2019-01-26T15:52:57.853Z,8.00
2019-01-26T15:56:08.899Z,6.00
2019-01-26T15:58:47.375Z,4.00
2019-01-26T16:04:41.591Z,5.50
2019-01-26T16:07:43.944Z,4.00
2019-01-26T16:10:33.197Z,5.33
2019-01-26T16:13:22.449Z,4.00
2019-01-26T16:16:12.521Z,7.33
2019-01-26T16:18:45.959Z,6.67
2019-01-26T16:21:19.599Z,6.00
2019-01-26T16:27:02.834Z,6.00
2019-01-26T16:29:33.979Z,5.00
2019-01-26T16:32:32.276Z,6.00
2019-01-26T16:35:21.569Z,8.00
2019-01-26T16:38:32.139Z,6.50
2019-01-26T16:41:12.226Z,6.67
2019-01-26T16:44:21.352Z,6.00
2019-01-26T16:50:11.592Z,6.00
2019-01-26T16:53:12.991Z,8.67
2019-01-26T16:55:39.544Z,8.00
2019-01-26T16:58:10.717Z,10.00
2019-01-26T17:00:43.171Z,10.00
2019-01-26T17:03:32.462Z,8.33
2019-01-26T17:06:02.770Z,6.67
2019-01-26T17:14:45.528Z,8.00
2019-01-26T17:17:36.021Z,8.67
2019-01-26T17:20:41.336Z,9.33
2019-01-26T17:29:17.609Z,7.33
2019-01-26T17:32:06.801Z,6.67
2019-01-26T17:34:39.616Z,8.00
2019-01-26T17:40:21.486Z,6.00
2019-01-26T17:43:10.693Z,6.00
2019-01-26T17:45:42.579Z,11.33
2019-01-26T17:48:32.050Z,8.00
2019-01-26T17:53:45.314Z,8.00
2019-01-26T17:57:12.167Z,10.00
2019-01-26T17:59:44.522Z,9.33
2019-01-26T18:03:06.615Z,11.33
2019-01-26T18:05:47.807Z,8.67
2019-01-26T18:11:38.135Z,8.00
2019-01-26T18:14:28.625Z,10.00
2019-01-26T18:17:24.403Z,9.33
2019-01-26T18:19:57.176Z,10.33
2019-01-26T18:28:37.514Z,6.00
2019-01-26T18:31:28.294Z,9.33
2019-01-26T18:34:17.527Z,8.00
2019-01-26T18:37:29.434Z,9.33
2019-01-26T18:40:43.000Z,8.00
2019-01-26T18:49:51.057Z,8.00
2019-01-26T18:52:21.615Z,8.00
2019-01-26T18:58:14.028Z,8.67
2019-01-26T19:01:04.593Z,8.00
2019-01-26T19:04:13.774Z,8.00
2019-01-26T19:06:55.712Z,8.00
2019-01-26T19:12:31.938Z,7.67
2019-01-26T19:15:42.400Z,8.00
2019-01-26T19:18:55.181Z,7.33
2019-01-26T19:25:12.999Z,6.67
2019-01-26T19:27:43.517Z,9.67
2019-01-26T19:30:37.816Z,4.00
2019-01-26T19:33:31.856Z,9.33
2019-01-26T19:36:02.227Z,6.00
2019-01-26T19:39:12.930Z,6.00
2019-01-26T19:41:45.410Z,6.00
2019-01-26T19:44:55.810Z,9.33
2019-01-26T19:47:26.088Z,7.33
2019-01-26T19:50:34.296Z,6.00
2019-01-26T19:53:44.634Z,6.67
2019-01-26T20:04:41.633Z,6.00
2019-01-26T20:07:32.194Z,8.00
2019-01-26T20:10:02.427Z,9.00
2019-01-26T20:21:48.765Z,6.00
2019-01-26T20:24:27.796Z,4.67
2019-01-26T20:27:01.307Z,6.67
2019-01-26T20:36:21.498Z,8.00
2019-01-26T20:39:33.825Z,7.67
2019-01-26T20:45:59.601Z,8.00
2019-01-26T20:48:50.043Z,6.00
2019-01-26T20:51:33.734Z,5.00
2019-01-26T21:00:04.730Z,6.00
2019-01-26T21:02:53.985Z,8.00
2019-01-26T21:05:24.237Z,7.33
2019-01-26T21:07:58.968Z,8.67
2019-01-26T21:10:48.458Z,9.33
2019-01-26T21:16:49.524Z,8.67
2019-01-26T21:19:41.800Z,8.00
2019-01-26T21:22:35.437Z,8.00
2019-01-26T21:25:17.473Z,9.00
2019-01-26T21:32:08.566Z,6.00
2019-01-26T21:35:24.037Z,8.00
2019-01-26T21:38:33.262Z,8.00
2019-01-26T21:45:07.165Z,4.50
2019-01-26T21:48:10.313Z,8.00
2019-01-26T21:54:48.416Z,6.67
2019-01-26T21:57:40.185Z,6.00
2019-01-26T22:10:41.946Z,10.00
2019-01-26T22:16:52.265Z,11.00
2019-01-26T22:20:06.947Z,8.00
2019-01-26T22:23:09.902Z,9.33
2019-01-26T22:29:05.115Z,12.00
2019-01-26T22:34:48.898Z,9.33
2019-01-26T22:37:40.158Z,6.67
2019-01-26T22:40:14.176Z,6.00
2019-01-26T22:42:59.159Z,10.00
2019-01-26T22:45:28.581Z,10.00
2019-01-26T22:48:01.210Z,8.67
2019-01-26T22:53:33.850Z,8.00
2019-01-26T22:56:26.447Z,8.00
2019-01-26T22:59:26.389Z,8.00
2019-01-26T23:05:51.408Z,10.67
2019-01-26T23:08:48.965Z,11.00
2019-01-26T23:11:57.218Z,8.00
2019-01-26T23:15:08.443Z,8.67
2019-01-26T23:21:18.802Z,14.50
2019-01-26T23:24:44.228Z,11.67
2019-01-26T23:27:40.642Z,10.00
2019-01-26T23:30:37.675Z,8.00
2019-01-26T23:36:09.135Z,7.33
2019-01-26T23:39:19.452Z,9.33
2019-01-26T23:42:10.937Z,7.33
2019-01-26T23:44:46.107Z,8.33
2019-01-26T23:47:18.168Z,8.67
2019-01-26T23:50:09.235Z,7.33
2019-01-26T23:52:59.677Z,8.00
2019-01-26T23:56:01.375Z,6.00
2019-01-26T23:58:21.205Z,7.33
